Empress, Canada
Current Conditions -  °F | °C
As of 7:00 AM on Sunday 21 Dec 2014 (Local Time) from CYKY Reporting Station
Clear Clear  
Wind Chill: 10°   Ceiling: Unl
Heat Index: 19°   Visibility: 15mi
Dew Point: 16°   Wind: 7mph
Humidity: 86%   Direction: 70°ENE
Pressure: 29.28"   Gusts: NA
Location:  50.97°N, 110.02°W
Report Text: CYKY 211400Z 07006KT 15SM SKC M07/M09 A2928 RMK SLP953
Loading
Personal Weather Stations






























Interactive Weather Map New forecast layout! Learn more

10-Day Weather Forecast

Advertisements
Track Severe Weather on mobile